sensor_id;sensor_type;location;lat;lon;timestamp;temperature;humidity
46492;DHT22;32206;51.446;6.792;2023-04-07T00:00:22;8.10;99.90
46492;DHT22;32206;51.446;6.792;2023-04-07T00:02:48;8.20;99.90
46492;DHT22;32206;51.446;6.792;2023-04-07T00:05:14;8.10;99.90
46492;DHT22;32206;51.446;6.792;2023-04-07T00:07:40;8.10;99.90
46492;DHT22;32206;51.446;6.792;2023-04-07T00:10:06;8.10;99.90
46492;DHT22;32206;51.446;6.792;2023-04-07T00:15:54;8.10;99.90
46492;DHT22;32206;51.446;6.792;2023-04-07T00:21:42;8.10;99.90
46492;DHT22;32206;51.446;6.792;2023-04-07T00:24:08;8.10;99.90
46492;DHT22;32206;51.446;6.792;2023-04-07T00:33:05;8.20;99.90
46492;DHT22;32206;51.446;6.792;2023-04-07T00:38:56;8.20;99.90
46492;DHT22;32206;51.446;6.792;2023-04-07T00:41:21;8.10;99.90
46492;DHT22;32206;51.446;6.792;2023-04-07T00:43:49;8.10;99.90
46492;DHT22;32206;51.446;6.792;2023-04-07T00:46:15;8.10;99.90
46492;DHT22;32206;51.446;6.792;2023-04-07T00:55:24;8.20;99.90
46492;DHT22;32206;51.446;6.792;2023-04-07T00:57:50;8.20;99.90
46492;DHT22;32206;51.446;6.792;2023-04-07T01:00:16;8.20;99.90
46492;DHT22;32206;51.446;6.792;2023-04-07T01:03:00;8.30;99.90
46492;DHT22;32206;51.446;6.792;2023-04-07T01:08:47;8.30;99.90
46492;DHT22;32206;51.446;6.792;2023-04-07T01:13:51;8.40;99.90
46492;DHT22;32206;51.446;6.792;2023-04-07T01:16:30;8.30;99.90
46492;DHT22;32206;51.446;6.792;2023-04-07T01:22:33;8.30;99.90
46492;DHT22;32206;51.446;6.792;2023-04-07T01:25:32;8.30;99.90
46492;DHT22;32206;51.446;6.792;2023-04-07T01:31:22;8.40;99.90
46492;DHT22;32206;51.446;6.792;2023-04-07T01:33:50;8.40;99.90
46492;DHT22;32206;51.446;6.792;2023-04-07T01:39:39;8.50;99.90
46492;DHT22;32206;51.446;6.792;2023-04-07T01:42:11;8.60;99.90
46492;DHT22;32206;51.446;6.792;2023-04-07T01:44:37;8.60;99.90
46492;DHT22;32206;51.446;6.792;2023-04-07T01:47:03;8.70;99.90
46492;DHT22;32206;51.446;6.792;2023-04-07T01:49:30;8.70;99.90
46492;DHT22;32206;51.446;6.792;2023-04-07T01:51:56;8.70;99.90
46492;DHT22;32206;51.446;6.792;2023-04-07T01:54:22;8.70;99.90
46492;DHT22;32206;51.446;6.792;2023-04-07T02:00:11;8.70;99.90
46492;DHT22;32206;51.446;6.792;2023-04-07T02:02:40;8.70;99.90
46492;DHT22;32206;51.446;6.792;2023-04-07T02:05:12;8.80;99.90
46492;DHT22;32206;51.446;6.792;2023-04-07T02:07:43;8.80;99.90
46492;DHT22;32206;51.446;6.792;2023-04-07T02:10:13;8.80;99.90
46492;DHT22;32206;51.446;6.792;2023-04-07T02:19:11;8.80;99.90
46492;DHT22;32206;51.446;6.792;2023-04-07T02:21:39;8.90;99.90
46492;DHT22;32206;51.446;6.792;2023-04-07T02:24:05;8.90;99.90
46492;DHT22;32206;51.446;6.792;2023-04-07T02:26:34;8.90;99.90
46492;DHT22;32206;51.446;6.792;2023-04-07T02:32:22;8.90;99.90
46492;DHT22;32206;51.446;6.792;2023-04-07T02:38:00;8.90;99.90
46492;DHT22;32206;51.446;6.792;2023-04-07T02:40:26;8.90;99.90
46492;DHT22;32206;51.446;6.792;2023-04-07T02:42:52;8.80;99.90
46492;DHT22;32206;51.446;6.792;2023-04-07T02:45:17;8.90;99.90
46492;DHT22;32206;51.446;6.792;2023-04-07T02:47:43;8.90;99.90
46492;DHT22;32206;51.446;6.792;2023-04-07T02:50:09;8.90;99.90
46492;DHT22;32206;51.446;6.792;2023-04-07T02:52:35;8.90;99.90
46492;DHT22;32206;51.446;6.792;2023-04-07T02:55:00;8.90;99.90
46492;DHT22;32206;51.446;6.792;2023-04-07T03:04:11;8.90;99.90
46492;DHT22;32206;51.446;6.792;2023-04-07T03:09:59;8.90;99.90
46492;DHT22;32206;51.446;6.792;2023-04-07T03:12:25;8.90;99.90
46492;DHT22;32206;51.446;6.792;2023-04-07T03:18:13;8.90;99.90
46492;DHT22;32206;51.446;6.792;2023-04-07T03:24:01;8.90;99.90
46492;DHT22;32206;51.446;6.792;2023-04-07T03:26:27;8.90;99.90
46492;DHT22;32206;51.446;6.792;2023-04-07T03:32:33;8.90;99.90
46492;DHT22;32206;51.446;6.792;2023-04-07T03:34:59;8.90;99.90
46492;DHT22;32206;51.446;6.792;2023-04-07T03:40:46;8.90;99.90
46492;DHT22;32206;51.446;6.792;2023-04-07T03:49:56;8.90;99.90
46492;DHT22;32206;51.446;6.792;2023-04-07T03:55:44;8.90;99.90
46492;DHT22;32206;51.446;6.792;2023-04-07T04:04:55;8.90;99.90
46492;DHT22;32206;51.446;6.792;2023-04-07T04:10:42;8.80;99.90
46492;DHT22;32206;51.446;6.792;2023-04-07T04:13:08;8.80;99.90
46492;DHT22;32206;51.446;6.792;2023-04-07T04:15:34;8.80;99.90
46492;DHT22;32206;51.446;6.792;2023-04-07T04:17:59;8.90;99.90
46492;DHT22;32206;51.446;6.792;2023-04-07T04:20:25;8.90;99.90
46492;DHT22;32206;51.446;6.792;2023-04-07T04:22:51;8.90;99.90
46492;DHT22;32206;51.446;6.792;2023-04-07T04:25:16;8.80;99.90
46492;DHT22;32206;51.446;6.792;2023-04-07T04:27:42;8.80;99.90
46492;DHT22;32206;51.446;6.792;2023-04-07T04:30:23;8.80;99.90
46492;DHT22;32206;51.446;6.792;2023-04-07T04:32:49;8.80;99.90
46492;DHT22;32206;51.446;6.792;2023-04-07T04:35:15;8.80;99.90
46492;DHT22;32206;51.446;6.792;2023-04-07T04:47:47;8.90;99.90
46492;DHT22;32206;51.446;6.792;2023-04-07T04:50:13;8.90;99.90
46492;DHT22;32206;51.446;6.792;2023-04-07T04:56:04;8.80;99.90
46492;DHT22;32206;51.446;6.792;2023-04-07T04:58:30;8.80;99.90
46492;DHT22;32206;51.446;6.792;2023-04-07T05:04:19;8.80;99.90
46492;DHT22;32206;51.446;6.792;2023-04-07T05:06:44;8.80;99.90
46492;DHT22;32206;51.446;6.792;2023-04-07T05:09:10;8.80;99.90
46492;DHT22;32206;51.446;6.792;2023-04-07T05:11:36;8.80;99.90
46492;DHT22;32206;51.446;6.792;2023-04-07T05:20:48;8.80;99.90
46492;DHT22;32206;51.446;6.792;2023-04-07T05:23:17;8.80;99.90
46492;DHT22;32206;51.446;6.792;2023-04-07T05:25:43;8.70;99.90
46492;DHT22;32206;51.446;6.792;2023-04-07T05:28:09;8.70;99.90
46492;DHT22;32206;51.446;6.792;2023-04-07T05:37:19;8.70;99.90
46492;DHT22;32206;51.446;6.792;2023-04-07T05:39:45;8.70;99.90
46492;DHT22;32206;51.446;6.792;2023-04-07T05:42:11;8.70;99.90
46492;DHT22;32206;51.446;6.792;2023-04-07T05:51:21;8.70;99.90
46492;DHT22;32206;51.446;6.792;2023-04-07T05:53:46;8.80;99.90
46492;DHT22;32206;51.446;6.792;2023-04-07T05:56:12;8.80;99.90
46492;DHT22;32206;51.446;6.792;2023-04-07T05:58:37;8.80;99.90
46492;DHT22;32206;51.446;6.792;2023-04-07T06:04:25;8.80;99.90
46492;DHT22;32206;51.446;6.792;2023-04-07T06:06:51;8.80;99.90
46492;DHT22;32206;51.446;6.792;2023-04-07T06:09:20;8.80;99.90
46492;DHT22;32206;51.446;6.792;2023-04-07T06:11:45;8.80;99.90
46492;DHT22;32206;51.446;6.792;2023-04-07T06:20:55;8.70;99.90
46492;DHT22;32206;51.446;6.792;2023-04-07T06:23:21;8.70;99.90
46492;DHT22;32206;51.446;6.792;2023-04-07T06:25:47;8.80;99.90
46492;DHT22;32206;51.446;6.792;2023-04-07T06:28:16;8.80;99.90
46492;DHT22;32206;51.446;6.792;2023-04-07T06:34:38;8.80;99.90
46492;DHT22;32206;51.446;6.792;2023-04-07T06:37:04;8.80;99.90
46492;DHT22;32206;51.446;6.792;2023-04-07T06:42:56;8.80;99.90
46492;DHT22;32206;51.446;6.792;2023-04-07T06:52:07;8.90;99.90
46492;DHT22;32206;51.446;6.792;2023-04-07T06:54:33;8.80;99.90
46492;DHT22;32206;51.446;6.792;2023-04-07T06:56:58;8.90;99.90
46492;DHT22;32206;51.446;6.792;2023-04-07T06:59:24;8.90;99.90
46492;DHT22;32206;51.446;6.792;2023-04-07T07:18:43;9.00;99.90
46492;DHT22;32206;51.446;6.792;2023-04-07T07:21:09;8.90;99.90
46492;DHT22;32206;51.446;6.792;2023-04-07T07:23:35;8.90;99.90
46492;DHT22;32206;51.446;6.792;2023-04-07T07:26:01;8.90;99.90
46492;DHT22;32206;51.446;6.792;2023-04-07T07:28:27;8.90;99.90
46492;DHT22;32206;51.446;6.792;2023-04-07T07:34:15;9.00;99.90
46492;DHT22;32206;51.446;6.792;2023-04-07T07:36:41;9.00;99.90
46492;DHT22;32206;51.446;6.792;2023-04-07T07:42:47;9.10;99.90
46492;DHT22;32206;51.446;6.792;2023-04-07T07:45:13;9.00;99.90
46492;DHT22;32206;51.446;6.792;2023-04-07T07:47:39;9.10;99.90
46492;DHT22;32206;51.446;6.792;2023-04-07T07:50:04;9.10;99.90
46492;DHT22;32206;51.446;6.792;2023-04-07T07:52:31;9.20;99.90
46492;DHT22;32206;51.446;6.792;2023-04-07T07:54:57;9.20;99.90
46492;DHT22;32206;51.446;6.792;2023-04-07T07:57:22;9.10;99.90
46492;DHT22;32206;51.446;6.792;2023-04-07T07:59:48;9.10;99.90
46492;DHT22;32206;51.446;6.792;2023-04-07T08:05:29;9.10;99.90
46492;DHT22;32206;51.446;6.792;2023-04-07T08:07:55;9.10;99.90
46492;DHT22;32206;51.446;6.792;2023-04-07T08:13:43;9.00;99.90
46492;DHT22;32206;51.446;6.792;2023-04-07T08:16:10;9.00;99.90
46492;DHT22;32206;51.446;6.792;2023-04-07T08:18:36;9.00;99.90
46492;DHT22;32206;51.446;6.792;2023-04-07T08:21:04;9.00;99.90
46492;DHT22;32206;51.446;6.792;2023-04-07T08:23:33;9.00;99.90
46492;DHT22;32206;51.446;6.792;2023-04-07T08:25:58;9.00;99.90
46492;DHT22;32206;51.446;6.792;2023-04-07T08:28:25;9.00;99.90
46492;DHT22;32206;51.446;6.792;2023-04-07T08:30:50;9.00;99.90
46492;DHT22;32206;51.446;6.792;2023-04-07T08:33:16;9.00;99.90
46492;DHT22;32206;51.446;6.792;2023-04-07T08:35:42;9.00;99.90
46492;DHT22;32206;51.446;6.792;2023-04-07T08:38:07;9.10;99.90
46492;DHT22;32206;51.446;6.792;2023-04-07T08:40:34;9.10;99.90
46492;DHT22;32206;51.446;6.792;2023-04-07T08:43:00;9.00;99.90
46492;DHT22;32206;51.446;6.792;2023-04-07T08:45:29;9.00;99.90
46492;DHT22;32206;51.446;6.792;2023-04-07T08:47:58;9.00;99.90
46492;DHT22;32206;51.446;6.792;2023-04-07T08:50:26;9.20;99.90
46492;DHT22;32206;51.446;6.792;2023-04-07T08:52:56;9.00;99.90
46492;DHT22;32206;51.446;6.792;2023-04-07T08:55:25;9.00;99.90
46492;DHT22;32206;51.446;6.792;2023-04-07T08:57:50;9.00;99.90
46492;DHT22;32206;51.446;6.792;2023-04-07T09:00:17;9.00;99.90
46492;DHT22;32206;51.446;6.792;2023-04-07T09:03:07;9.00;99.90
46492;DHT22;32206;51.446;6.792;2023-04-07T09:05:33;9.00;99.90
46492;DHT22;32206;51.446;6.792;2023-04-07T09:07:59;9.00;99.90
46492;DHT22;32206;51.446;6.792;2023-04-07T09:10:26;9.10;99.90
46492;DHT22;32206;51.446;6.792;2023-04-07T09:12:51;9.10;99.90
46492;DHT22;32206;51.446;6.792;2023-04-07T09:15:17;9.00;99.90
46492;DHT22;32206;51.446;6.792;2023-04-07T09:17:43;9.00;99.90
46492;DHT22;32206;51.446;6.792;2023-04-07T09:20:09;9.10;99.90
46492;DHT22;32206;51.446;6.792;2023-04-07T09:22:39;9.10;99.90
46492;DHT22;32206;51.446;6.792;2023-04-07T09:28:57;9.10;99.90
46492;DHT22;32206;51.446;6.792;2023-04-07T09:31:46;9.10;99.90
46492;DHT22;32206;51.446;6.792;2023-04-07T09:36:51;9.20;99.90
46492;DHT22;32206;51.446;6.792;2023-04-07T09:43:17;9.30;99.90
46492;DHT22;32206;51.446;6.792;2023-04-07T09:45:43;9.30;99.90
46492;DHT22;32206;51.446;6.792;2023-04-07T09:48:19;9.30;99.90
46492;DHT22;32206;51.446;6.792;2023-04-07T09:54:07;9.40;99.90
46492;DHT22;32206;51.446;6.792;2023-04-07T09:56:33;9.40;99.90
46492;DHT22;32206;51.446;6.792;2023-04-07T09:59:01;9.40;99.90
46492;DHT22;32206;51.446;6.792;2023-04-07T10:01:27;9.40;99.90
46492;DHT22;32206;51.446;6.792;2023-04-07T10:03:53;9.40;99.90
46492;DHT22;32206;51.446;6.792;2023-04-07T10:06:20;9.30;99.90
46492;DHT22;32206;51.446;6.792;2023-04-07T10:08:47;9.40;99.90
46492;DHT22;32206;51.446;6.792;2023-04-07T10:11:14;9.40;99.90
46492;DHT22;32206;51.446;6.792;2023-04-07T10:13:40;9.40;99.90
46492;DHT22;32206;51.446;6.792;2023-04-07T10:16:07;9.70;99.90
46492;DHT22;32206;51.446;6.792;2023-04-07T10:21:55;9.50;99.90
46492;DHT22;32206;51.446;6.792;2023-04-07T10:28:05;9.50;99.90
46492;DHT22;32206;51.446;6.792;2023-04-07T10:30:31;9.50;99.90
46492;DHT22;32206;51.446;6.792;2023-04-07T10:32:58;9.50;99.90
46492;DHT22;32206;51.446;6.792;2023-04-07T10:35:24;9.60;99.90
46492;DHT22;32206;51.446;6.792;2023-04-07T10:38:09;9.70;99.90
46492;DHT22;32206;51.446;6.792;2023-04-07T10:40:36;9.70;99.90
46492;DHT22;32206;51.446;6.792;2023-04-07T10:43:03;9.70;99.90
46492;DHT22;32206;51.446;6.792;2023-04-07T10:48:14;9.70;99.90
46492;DHT22;32206;51.446;6.792;2023-04-07T10:50:40;9.70;99.90
46492;DHT22;32206;51.446;6.792;2023-04-07T10:53:08;9.70;99.90
46492;DHT22;32206;51.446;6.792;2023-04-07T10:55:36;9.70;99.90
46492;DHT22;32206;51.446;6.792;2023-04-07T11:03:25;9.80;99.90
46492;DHT22;32206;51.446;6.792;2023-04-07T11:05:51;9.90;99.90
46492;DHT22;32206;51.446;6.792;2023-04-07T11:11:05;10.00;99.90
46492;DHT22;32206;51.446;6.792;2023-04-07T11:13:59;10.00;99.90
46492;DHT22;32206;51.446;6.792;2023-04-07T11:16:37;10.10;99.90
46492;DHT22;32206;51.446;6.792;2023-04-07T11:19:03;10.10;99.90
46492;DHT22;32206;51.446;6.792;2023-04-07T11:21:29;10.10;99.90
46492;DHT22;32206;51.446;6.792;2023-04-07T11:23:54;10.20;99.90
46492;DHT22;32206;51.446;6.792;2023-04-07T11:26:20;10.30;99.90
46492;DHT22;32206;51.446;6.792;2023-04-07T11:28:53;10.30;99.90
46492;DHT22;32206;51.446;6.792;2023-04-07T11:31:26;10.40;99.90
46492;DHT22;32206;51.446;6.792;2023-04-07T11:33:54;10.40;99.90
46492;DHT22;32206;51.446;6.792;2023-04-07T11:36:36;10.50;99.90
46492;DHT22;32206;51.446;6.792;2023-04-07T11:39:02;10.50;99.90
46492;DHT22;32206;51.446;6.792;2023-04-07T11:44:50;10.50;99.90
46492;DHT22;32206;51.446;6.792;2023-04-07T11:47:15;10.50;99.90
46492;DHT22;32206;51.446;6.792;2023-04-07T11:53:06;10.40;99.90
46492;DHT22;32206;51.446;6.792;2023-04-07T11:55:32;10.50;99.90
46492;DHT22;32206;51.446;6.792;2023-04-07T11:58:07;10.50;99.90
46492;DHT22;32206;51.446;6.792;2023-04-07T12:00:52;10.50;99.90
46492;DHT22;32206;51.446;6.792;2023-04-07T12:03:18;10.50;99.90
46492;DHT22;32206;51.446;6.792;2023-04-07T12:05:44;10.50;99.90
46492;DHT22;32206;51.446;6.792;2023-04-07T12:08:10;10.60;99.90
46492;DHT22;32206;51.446;6.792;2023-04-07T12:10:35;10.70;99.90
46492;DHT22;32206;51.446;6.792;2023-04-07T12:16:39;10.70;99.90
46492;DHT22;32206;51.446;6.792;2023-04-07T12:25:49;10.50;99.90
46492;DHT22;32206;51.446;6.792;2023-04-07T12:28:15;10.50;99.90
46492;DHT22;32206;51.446;6.792;2023-04-07T12:30:40;10.40;99.90
46492;DHT22;32206;51.446;6.792;2023-04-07T12:33:06;10.40;99.90
46492;DHT22;32206;51.446;6.792;2023-04-07T12:35:32;10.30;99.90
46492;DHT22;32206;51.446;6.792;2023-04-07T12:37:58;10.40;99.90
46492;DHT22;32206;51.446;6.792;2023-04-07T12:40:23;10.40;99.90
46492;DHT22;32206;51.446;6.792;2023-04-07T12:42:49;10.40;99.90
46492;DHT22;32206;51.446;6.792;2023-04-07T12:45:15;10.40;99.90
46492;DHT22;32206;51.446;6.792;2023-04-07T12:47:41;10.30;99.90
46492;DHT22;32206;51.446;6.792;2023-04-07T12:53:29;10.40;99.90
46492;DHT22;32206;51.446;6.792;2023-04-07T12:55:55;10.40;99.90
46492;DHT22;32206;51.446;6.792;2023-04-07T13:01:43;10.40;99.90
46492;DHT22;32206;51.446;6.792;2023-04-07T13:04:15;10.40;99.90
46492;DHT22;32206;51.446;6.792;2023-04-07T13:06:42;10.40;99.90
46492;DHT22;32206;51.446;6.792;2023-04-07T13:09:08;10.50;99.90
46492;DHT22;32206;51.446;6.792;2023-04-07T13:11:33;10.50;99.90
46492;DHT22;32206;51.446;6.792;2023-04-07T13:14:00;10.50;99.90
46492;DHT22;32206;51.446;6.792;2023-04-07T13:16:26;10.50;99.90
46492;DHT22;32206;51.446;6.792;2023-04-07T13:18:52;10.50;99.90
46492;DHT22;32206;51.446;6.792;2023-04-07T13:21:17;10.60;99.90
46492;DHT22;32206;51.446;6.792;2023-04-07T13:23:43;10.70;99.90
46492;DHT22;32206;51.446;6.792;2023-04-07T13:26:09;10.80;99.90
46492;DHT22;32206;51.446;6.792;2023-04-07T13:32:06;10.60;99.90
46492;DHT22;32206;51.446;6.792;2023-04-07T13:41:16;10.60;99.90
46492;DHT22;32206;51.446;6.792;2023-04-07T13:43:41;10.60;99.90
46492;DHT22;32206;51.446;6.792;2023-04-07T13:46:07;10.60;99.90
46492;DHT22;32206;51.446;6.792;2023-04-07T13:48:38;10.60;99.90
46492;DHT22;32206;51.446;6.792;2023-04-07T13:54:29;10.60;99.90
46492;DHT22;32206;51.446;6.792;2023-04-07T13:56:55;10.60;99.90
46492;DHT22;32206;51.446;6.792;2023-04-07T13:59:21;10.60;99.90
46492;DHT22;32206;51.446;6.792;2023-04-07T14:01:46;10.60;99.90
46492;DHT22;32206;51.446;6.792;2023-04-07T14:04:12;10.60;99.90
46492;DHT22;32206;51.446;6.792;2023-04-07T14:10:00;10.40;99.90
46492;DHT22;32206;51.446;6.792;2023-04-07T14:16:16;10.30;99.90
46492;DHT22;32206;51.446;6.792;2023-04-07T14:18:42;10.20;99.90
46492;DHT22;32206;51.446;6.792;2023-04-07T14:24:30;10.20;99.90
46492;DHT22;32206;51.446;6.792;2023-04-07T14:26:56;10.10;99.90
46492;DHT22;32206;51.446;6.792;2023-04-07T14:29:21;10.10;99.90
46492;DHT22;32206;51.446;6.792;2023-04-07T14:31:47;10.20;99.90
46492;DHT22;32206;51.446;6.792;2023-04-07T14:34:14;10.10;99.90
46492;DHT22;32206;51.446;6.792;2023-04-07T14:40:05;10.00;99.90
46492;DHT22;32206;51.446;6.792;2023-04-07T14:42:31;10.00;99.90
46492;DHT22;32206;51.446;6.792;2023-04-07T14:44:58;10.00;99.90
46492;DHT22;32206;51.446;6.792;2023-04-07T14:47:24;10.00;99.90
46492;DHT22;32206;51.446;6.792;2023-04-07T14:49:51;10.20;99.90
46492;DHT22;32206;51.446;6.792;2023-04-07T14:52:17;10.00;99.90
46492;DHT22;32206;51.446;6.792;2023-04-07T14:54:42;10.00;99.90
46492;DHT22;32206;51.446;6.792;2023-04-07T14:57:08;10.10;99.90
46492;DHT22;32206;51.446;6.792;2023-04-07T14:59:34;10.10;99.90
46492;DHT22;32206;51.446;6.792;2023-04-07T15:01:59;10.10;99.90
46492;DHT22;32206;51.446;6.792;2023-04-07T15:04:25;10.10;99.90
46492;DHT22;32206;51.446;6.792;2023-04-07T15:10:13;10.20;99.90
46492;DHT22;32206;51.446;6.792;2023-04-07T15:12:38;10.10;99.90
46492;DHT22;32206;51.446;6.792;2023-04-07T15:18:26;10.10;99.90
46492;DHT22;32206;51.446;6.792;2023-04-07T15:20:52;10.10;99.90
46492;DHT22;32206;51.446;6.792;2023-04-07T15:23:18;10.10;99.90
46492;DHT22;32206;51.446;6.792;2023-04-07T15:25:43;10.10;99.90
46492;DHT22;32206;51.446;6.792;2023-04-07T15:28:09;10.20;99.90
46492;DHT22;32206;51.446;6.792;2023-04-07T15:30:35;10.20;99.90
46492;DHT22;32206;51.446;6.792;2023-04-07T15:33:03;10.20;99.90
46492;DHT22;32206;51.446;6.792;2023-04-07T15:35:30;10.20;99.90
46492;DHT22;32206;51.446;6.792;2023-04-07T15:41:17;10.30;99.90
46492;DHT22;32206;51.446;6.792;2023-04-07T15:44:17;10.30;99.90
46492;DHT22;32206;51.446;6.792;2023-04-07T15:46:43;10.30;99.90
46492;DHT22;32206;51.446;6.792;2023-04-07T15:49:09;10.20;99.90
46492;DHT22;32206;51.446;6.792;2023-04-07T15:58:09;10.30;99.90
46492;DHT22;32206;51.446;6.792;2023-04-07T16:00:37;10.30;99.90
46492;DHT22;32206;51.446;6.792;2023-04-07T16:03:03;10.30;99.90
46492;DHT22;32206;51.446;6.792;2023-04-07T16:05:29;10.20;99.90
46492;DHT22;32206;51.446;6.792;2023-04-07T16:07:55;10.30;99.90
46492;DHT22;32206;51.446;6.792;2023-04-07T16:10:21;10.20;99.90
46492;DHT22;32206;51.446;6.792;2023-04-07T16:16:33;10.20;99.90
46492;DHT22;32206;51.446;6.792;2023-04-07T16:19:03;10.20;99.90
46492;DHT22;32206;51.446;6.792;2023-04-07T16:21:29;10.20;99.90
46492;DHT22;32206;51.446;6.792;2023-04-07T16:23:55;10.20;99.90
46492;DHT22;32206;51.446;6.792;2023-04-07T16:26:21;10.20;99.90
46492;DHT22;32206;51.446;6.792;2023-04-07T16:35:31;10.10;99.90
46492;DHT22;32206;51.446;6.792;2023-04-07T16:37:57;10.10;99.90
46492;DHT22;32206;51.446;6.792;2023-04-07T16:40:29;10.10;99.90
46492;DHT22;32206;51.446;6.792;2023-04-07T16:42:54;10.10;99.90
46492;DHT22;32206;51.446;6.792;2023-04-07T16:45:20;10.10;99.90
46492;DHT22;32206;51.446;6.792;2023-04-07T16:47:46;10.10;99.90
46492;DHT22;32206;51.446;6.792;2023-04-07T16:50:11;10.10;99.90
46492;DHT22;32206;51.446;6.792;2023-04-07T16:56:19;10.10;99.90
46492;DHT22;32206;51.446;6.792;2023-04-07T16:58:46;10.20;99.90
46492;DHT22;32206;51.446;6.792;2023-04-07T17:01:12;10.20;99.90
46492;DHT22;32206;51.446;6.792;2023-04-07T17:03:38;10.20;99.90
46492;DHT22;32206;51.446;6.792;2023-04-07T17:06:04;10.20;99.90
46492;DHT22;32206;51.446;6.792;2023-04-07T17:11:52;10.20;99.90
46492;DHT22;32206;51.446;6.792;2023-04-07T17:14:19;10.10;99.90
46492;DHT22;32206;51.446;6.792;2023-04-07T17:16:45;10.10;99.90
46492;DHT22;32206;51.446;6.792;2023-04-07T17:19:10;10.10;99.90
46492;DHT22;32206;51.446;6.792;2023-04-07T17:21:36;10.10;99.90
46492;DHT22;32206;51.446;6.792;2023-04-07T17:24:02;10.10;99.90
46492;DHT22;32206;51.446;6.792;2023-04-07T17:26:27;10.00;99.90
46492;DHT22;32206;51.446;6.792;2023-04-07T17:28:53;10.00;99.90
46492;DHT22;32206;51.446;6.792;2023-04-07T17:34:37;10.00;99.90
46492;DHT22;32206;51.446;6.792;2023-04-07T17:37:03;10.00;99.90
46492;DHT22;32206;51.446;6.792;2023-04-07T17:39:28;9.90;99.90
46492;DHT22;32206;51.446;6.792;2023-04-07T17:41:54;10.00;99.90
46492;DHT22;32206;51.446;6.792;2023-04-07T17:44:20;10.00;99.90
46492;DHT22;32206;51.446;6.792;2023-04-07T17:46:45;10.00;99.90
46492;DHT22;32206;51.446;6.792;2023-04-07T17:49:11;10.00;99.90
46492;DHT22;32206;51.446;6.792;2023-04-07T17:51:37;9.90;99.90
46492;DHT22;32206;51.446;6.792;2023-04-07T17:57:24;9.90;99.90
46492;DHT22;32206;51.446;6.792;2023-04-07T17:59:50;10.00;99.90
46492;DHT22;32206;51.446;6.792;2023-04-07T18:02:16;9.90;99.90
46492;DHT22;32206;51.446;6.792;2023-04-07T18:04:42;9.90;99.90
46492;DHT22;32206;51.446;6.792;2023-04-07T18:07:08;9.90;99.90
46492;DHT22;32206;51.446;6.792;2023-04-07T18:09:37;9.90;99.90
46492;DHT22;32206;51.446;6.792;2023-04-07T18:12:02;9.90;99.90
46492;DHT22;32206;51.446;6.792;2023-04-07T18:14:28;9.80;99.90
46492;DHT22;32206;51.446;6.792;2023-04-07T18:20:16;9.80;99.90
46492;DHT22;32206;51.446;6.792;2023-04-07T18:26:04;9.80;99.90
46492;DHT22;32206;51.446;6.792;2023-04-07T18:28:31;9.80;99.90
46492;DHT22;32206;51.446;6.792;2023-04-07T18:31:04;9.80;99.90
46492;DHT22;32206;51.446;6.792;2023-04-07T18:33:34;9.80;99.90
46492;DHT22;32206;51.446;6.792;2023-04-07T18:36:05;9.90;99.90
46492;DHT22;32206;51.446;6.792;2023-04-07T18:42:30;9.80;99.90
46492;DHT22;32206;51.446;6.792;2023-04-07T18:44:56;9.70;99.90
46492;DHT22;32206;51.446;6.792;2023-04-07T18:50:48;9.60;99.90
46492;DHT22;32206;51.446;6.792;2023-04-07T19:03:21;9.60;99.90
46492;DHT22;32206;51.446;6.792;2023-04-07T19:05:47;9.60;99.90
46492;DHT22;32206;51.446;6.792;2023-04-07T19:14:57;9.60;99.90
46492;DHT22;32206;51.446;6.792;2023-04-07T19:20:45;9.50;99.90
46492;DHT22;32206;51.446;6.792;2023-04-07T19:26:33;9.50;99.90
46492;DHT22;32206;51.446;6.792;2023-04-07T19:28:59;9.50;99.90
46492;DHT22;32206;51.446;6.792;2023-04-07T19:37:53;9.40;99.90
46492;DHT22;32206;51.446;6.792;2023-04-07T19:43:41;9.50;99.90
46492;DHT22;32206;51.446;6.792;2023-04-07T19:49:28;9.50;99.90
46492;DHT22;32206;51.446;6.792;2023-04-07T19:51:54;9.40;99.90
46492;DHT22;32206;51.446;6.792;2023-04-07T19:54:57;9.40;99.90
46492;DHT22;32206;51.446;6.792;2023-04-07T19:57:24;9.40;99.90
46492;DHT22;32206;51.446;6.792;2023-04-07T19:59:50;9.40;99.90
46492;DHT22;32206;51.446;6.792;2023-04-07T20:05:37;9.50;99.90
46492;DHT22;32206;51.446;6.792;2023-04-07T20:08:03;9.40;99.90
46492;DHT22;32206;51.446;6.792;2023-04-07T20:13:51;9.30;99.90
46492;DHT22;32206;51.446;6.792;2023-04-07T20:16:32;9.30;99.90
46492;DHT22;32206;51.446;6.792;2023-04-07T20:18:57;9.40;99.90
46492;DHT22;32206;51.446;6.792;2023-04-07T20:21:23;9.40;99.90
46492;DHT22;32206;51.446;6.792;2023-04-07T20:23:55;9.50;99.90
46492;DHT22;32206;51.446;6.792;2023-04-07T20:26:20;9.40;99.90
46492;DHT22;32206;51.446;6.792;2023-04-07T20:28:46;9.40;99.90
46492;DHT22;32206;51.446;6.792;2023-04-07T20:31:12;9.40;99.90
46492;DHT22;32206;51.446;6.792;2023-04-07T20:37:00;9.30;99.90
46492;DHT22;32206;51.446;6.792;2023-04-07T20:46:10;9.20;99.90
46492;DHT22;32206;51.446;6.792;2023-04-07T20:51:58;9.30;99.90
46492;DHT22;32206;51.446;6.792;2023-04-07T21:01:08;9.20;99.90
46492;DHT22;32206;51.446;6.792;2023-04-07T21:03:34;9.20;99.90
46492;DHT22;32206;51.446;6.792;2023-04-07T21:06:00;9.20;99.90
46492;DHT22;32206;51.446;6.792;2023-04-07T21:08:29;9.20;99.90
46492;DHT22;32206;51.446;6.792;2023-04-07T21:14:19;9.20;99.90
46492;DHT22;32206;51.446;6.792;2023-04-07T21:16:45;9.20;99.90
46492;DHT22;32206;51.446;6.792;2023-04-07T21:19:11;9.20;99.90
46492;DHT22;32206;51.446;6.792;2023-04-07T21:21:36;9.30;99.90
46492;DHT22;32206;51.446;6.792;2023-04-07T21:24:02;9.30;99.90
46492;DHT22;32206;51.446;6.792;2023-04-07T21:26:28;9.20;99.90
46492;DHT22;32206;51.446;6.792;2023-04-07T21:28:53;9.40;99.90
46492;DHT22;32206;51.446;6.792;2023-04-07T21:31:23;9.20;99.90
46492;DHT22;32206;51.446;6.792;2023-04-07T21:37:11;9.20;99.90
46492;DHT22;32206;51.446;6.792;2023-04-07T21:46:21;9.30;99.90
46492;DHT22;32206;51.446;6.792;2023-04-07T22:01:57;9.30;99.90
46492;DHT22;32206;51.446;6.792;2023-04-07T22:07:45;9.30;99.90
46492;DHT22;32206;51.446;6.792;2023-04-07T22:17:20;9.30;99.90
46492;DHT22;32206;51.446;6.792;2023-04-07T22:19:45;9.40;99.90
46492;DHT22;32206;51.446;6.792;2023-04-07T22:22:11;9.30;99.90
46492;DHT22;32206;51.446;6.792;2023-04-07T22:24:37;9.30;99.90
46492;DHT22;32206;51.446;6.792;2023-04-07T22:27:02;9.40;99.90
46492;DHT22;32206;51.446;6.792;2023-04-07T22:29:28;9.40;99.90
46492;DHT22;32206;51.446;6.792;2023-04-07T22:31:54;9.30;99.90
46492;DHT22;32206;51.446;6.792;2023-04-07T22:37:41;9.40;99.90
46492;DHT22;32206;51.446;6.792;2023-04-07T22:40:08;9.30;99.90
46492;DHT22;32206;51.446;6.792;2023-04-07T22:42:56;9.40;99.90
46492;DHT22;32206;51.446;6.792;2023-04-07T22:45:21;9.30;99.90
46492;DHT22;32206;51.446;6.792;2023-04-07T22:54:31;9.40;99.90
46492;DHT22;32206;51.446;6.792;2023-04-07T23:00:20;9.40;99.90
46492;DHT22;32206;51.446;6.792;2023-04-07T23:02:46;9.40;99.90